createdAt,value
2017-07-16T00:00:51.381Z,2.07
2017-07-16T00:03:19.690Z,2.40
2017-07-16T00:05:48.009Z,2.37
2017-07-16T00:08:16.351Z,2.20
2017-07-16T00:10:44.671Z,2.60
2017-07-16T00:13:13.016Z,2.20
2017-07-16T00:15:41.329Z,2.17
2017-07-16T00:18:09.675Z,2.63
2017-07-16T00:20:38.010Z,2.87
2017-07-16T00:23:06.356Z,2.30
2017-07-16T00:25:34.671Z,2.70
2017-07-16T00:28:03.015Z,2.30
2017-07-16T00:30:31.369Z,2.93
2017-07-16T00:32:59.685Z,2.97
2017-07-16T00:35:28.033Z,2.50
2017-07-16T00:37:56.363Z,2.47
2017-07-16T00:40:24.719Z,3.60
2017-07-16T00:42:53.036Z,3.10
2017-07-16T00:45:21.386Z,3.13
2017-07-16T00:47:49.709Z,3.20
2017-07-16T00:50:18.052Z,2.53
2017-07-16T00:52:46.365Z,2.40
2017-07-16T00:55:14.682Z,2.87
2017-07-16T00:57:43.036Z,2.27
2017-07-16T01:00:11.343Z,3.20
2017-07-16T01:02:39.689Z,3.10
2017-07-16T01:05:08.006Z,3.40
2017-07-16T01:07:36.356Z,3.90
2017-07-16T01:10:05.786Z,3.30
2017-07-16T01:12:34.135Z,4.03
2017-07-16T01:15:02.457Z,3.70
2017-07-16T01:17:30.795Z,3.73
2017-07-16T01:19:59.108Z,2.60
2017-07-16T01:22:27.460Z,2.40
2017-07-16T01:24:55.782Z,2.80
2017-07-16T01:27:24.103Z,2.53
2017-07-16T01:29:52.437Z,2.60
2017-07-16T01:32:20.754Z,2.17
2017-07-16T01:37:49.286Z,3.03
2017-07-16T01:40:17.776Z,3.30
2017-07-16T01:42:46.088Z,2.90
2017-07-16T01:45:14.424Z,3.03
2017-07-16T01:47:42.730Z,2.97
2017-07-16T01:50:11.079Z,2.80
2017-07-16T01:52:39.396Z,3.93
2017-07-16T01:55:07.712Z,3.17
2017-07-16T01:57:36.041Z,2.87
2017-07-16T02:00:04.348Z,2.43
2017-07-16T02:02:32.693Z,2.47
2017-07-16T02:05:01.015Z,2.60
2017-07-16T02:07:29.349Z,3.13
2017-07-16T02:09:57.666Z,4.57
2017-07-16T02:12:26.007Z,2.60
2017-07-16T02:14:54.315Z,3.07
2017-07-16T02:17:22.949Z,2.57
2017-07-16T02:19:51.260Z,2.57
2017-07-16T02:22:19.609Z,2.37
2017-07-16T02:24:47.929Z,2.57
2017-07-16T02:27:16.240Z,2.63
2017-07-16T02:29:44.571Z,2.30
2017-07-16T02:32:12.884Z,2.63
2017-07-16T02:34:41.223Z,2.87
2017-07-16T02:37:09.531Z,2.40
2017-07-16T02:39:37.876Z,3.00
2017-07-16T02:42:06.192Z,2.93
2017-07-16T02:44:34.533Z,2.90
2017-07-16T02:47:02.849Z,3.00
2017-07-16T02:49:31.182Z,2.87
2017-07-16T02:51:59.503Z,2.60
2017-07-16T02:54:27.822Z,2.60
2017-07-16T02:56:56.169Z,4.80
2017-07-16T02:59:24.559Z,2.93
2017-07-16T03:01:57.816Z,2.70
2017-07-16T03:04:27.084Z,2.53
2017-07-16T03:06:55.416Z,2.17
2017-07-16T03:09:23.866Z,2.70
2017-07-16T03:11:52.194Z,3.13
2017-07-16T03:14:20.507Z,3.10
2017-07-16T03:16:48.952Z,2.70
2017-07-16T03:19:17.263Z,3.03
2017-07-16T03:21:45.577Z,3.07
2017-07-16T03:24:13.918Z,3.27
2017-07-16T03:26:42.239Z,2.67
2017-07-16T03:29:10.577Z,2.80
2017-07-16T03:31:38.897Z,2.80
2017-07-16T03:34:07.245Z,2.10
2017-07-16T03:36:35.556Z,2.67
2017-07-16T03:39:03.891Z,2.50
2017-07-16T03:41:32.209Z,3.07
2017-07-16T03:44:00.555Z,3.40
2017-07-16T03:46:28.881Z,3.20
2017-07-16T03:48:57.209Z,2.97
2017-07-16T03:51:25.549Z,2.77
2017-07-16T03:53:53.868Z,2.60
2017-07-16T03:56:22.195Z,2.47
2017-07-16T03:58:50.511Z,3.00
2017-07-16T04:01:18.846Z,2.83
2017-07-16T04:03:47.163Z,2.43
2017-07-16T04:06:15.503Z,3.30
2017-07-16T04:08:43.818Z,2.93
2017-07-16T04:11:12.140Z,3.20
2017-07-16T04:13:40.476Z,2.50
2017-07-16T04:16:08.793Z,3.30
2017-07-16T04:18:37.143Z,3.30
2017-07-16T04:21:05.450Z,3.80
2017-07-16T04:23:33.789Z,3.10
2017-07-16T04:26:02.097Z,2.60
2017-07-16T04:28:30.425Z,3.17
2017-07-16T04:30:58.730Z,3.17
2017-07-16T04:33:27.067Z,2.83
2017-07-16T04:35:55.384Z,3.03
2017-07-16T04:38:23.703Z,3.30
2017-07-16T04:40:52.051Z,3.17
2017-07-16T04:43:20.371Z,3.33
2017-07-16T04:45:48.709Z,3.37
2017-07-16T04:48:17.013Z,3.77
2017-07-16T04:50:45.345Z,3.50
2017-07-16T04:53:13.656Z,2.93
2017-07-16T04:55:41.997Z,3.30
2017-07-16T04:58:10.319Z,3.30
2017-07-16T05:00:38.647Z,2.87
2017-07-16T05:03:08.871Z,3.40
2017-07-16T05:05:37.219Z,2.90
2017-07-16T05:08:05.539Z,3.23
2017-07-16T05:10:33.898Z,3.50
2017-07-16T05:13:02.238Z,3.40
2017-07-16T05:15:30.555Z,3.07
2017-07-16T05:17:58.895Z,2.93
2017-07-16T05:20:27.208Z,3.20
2017-07-16T05:22:55.555Z,3.27
2017-07-16T05:25:23.868Z,2.93
2017-07-16T05:27:52.225Z,3.43
2017-07-16T05:30:20.544Z,2.80
2017-07-16T05:32:48.888Z,2.70
2017-07-16T05:35:17.200Z,2.97
2017-07-16T05:37:45.511Z,3.27
2017-07-16T05:40:13.848Z,2.90
2017-07-16T05:42:42.164Z,2.70
2017-07-16T05:45:10.507Z,2.50
2017-07-16T05:47:38.824Z,2.87
2017-07-16T05:50:07.167Z,2.83
2017-07-16T05:52:35.495Z,2.80
2017-07-16T05:55:03.837Z,2.67
2017-07-16T05:57:32.158Z,1.90
2017-07-16T06:00:00.499Z,3.03
2017-07-16T06:02:28.817Z,2.40
2017-07-16T06:04:57.165Z,2.63
2017-07-16T06:07:25.500Z,2.40
2017-07-16T06:09:57.391Z,2.03
2017-07-16T06:12:25.706Z,2.50
2017-07-16T06:14:54.023Z,2.10
2017-07-16T06:17:22.358Z,2.60
2017-07-16T06:19:50.680Z,2.10
2017-07-16T06:22:19.023Z,2.17
2017-07-16T06:24:47.344Z,2.77
2017-07-16T06:27:15.682Z,2.50
2017-07-16T06:29:43.997Z,2.43
2017-07-16T06:32:12.332Z,2.40
2017-07-16T06:34:40.650Z,2.77
2017-07-16T06:37:08.984Z,2.50
2017-07-16T06:39:37.312Z,2.80
2017-07-16T06:42:05.655Z,3.20
2017-07-16T06:44:34.915Z,2.30
2017-07-16T06:47:03.240Z,2.50
2017-07-16T06:49:31.575Z,2.10
2017-07-16T06:51:59.885Z,2.00
2017-07-16T06:54:28.222Z,2.30
2017-07-16T06:56:56.534Z,1.77
2017-07-16T06:59:24.871Z,2.40
2017-07-16T07:01:53.188Z,2.20
2017-07-16T07:04:21.524Z,2.10
2017-07-16T07:06:49.844Z,2.00
2017-07-16T07:09:18.191Z,2.07
2017-07-16T07:11:46.507Z,2.50
2017-07-16T07:14:14.826Z,2.13
2017-07-16T07:16:43.168Z,1.93
2017-07-16T07:19:11.486Z,2.00
2017-07-16T07:21:39.830Z,1.90
2017-07-16T07:24:08.158Z,1.80
2017-07-16T07:26:36.504Z,2.03
2017-07-16T07:29:04.817Z,2.10
2017-07-16T07:31:33.150Z,2.57
2017-07-16T07:34:01.467Z,1.90
2017-07-16T07:36:29.825Z,1.77
2017-07-16T07:38:58.143Z,1.70
2017-07-16T07:41:26.465Z,2.17
2017-07-16T07:43:54.809Z,2.87
2017-07-16T07:46:29.696Z,1.53
2017-07-16T07:48:58.043Z,1.60
2017-07-16T07:51:26.367Z,1.73
2017-07-16T07:53:54.708Z,1.60
2017-07-16T07:56:23.032Z,1.77
2017-07-16T07:58:51.485Z,1.60
2017-07-16T08:01:19.808Z,1.67
2017-07-16T08:03:48.139Z,1.70
2017-07-16T08:06:16.482Z,1.77
2017-07-16T08:08:44.809Z,1.60
2017-07-16T08:11:13.153Z,1.40
2017-07-16T08:13:41.566Z,1.40
2017-07-16T08:16:09.905Z,1.40
2017-07-16T08:18:38.227Z,1.30
2017-07-16T08:21:06.568Z,1.30
2017-07-16T08:23:34.892Z,1.20
2017-07-16T08:26:03.221Z,1.27
2017-07-16T08:28:31.781Z,1.10
2017-07-16T08:31:00.118Z,1.50
2017-07-16T08:33:28.432Z,1.00
2017-07-16T08:35:56.751Z,1.00
2017-07-16T08:38:25.093Z,1.10
2017-07-16T08:40:53.420Z,1.57
2017-07-16T08:43:21.771Z,1.10
2017-07-16T08:45:50.085Z,1.00
2017-07-16T08:48:18.430Z,1.10
2017-07-16T08:50:46.753Z,1.00
2017-07-16T08:53:15.099Z,1.20
2017-07-16T08:55:43.420Z,0.90
2017-07-16T08:58:11.899Z,0.97
2017-07-16T09:00:40.220Z,0.90
2017-07-16T09:06:08.373Z,0.80
2017-07-16T09:08:36.711Z,1.00
2017-07-16T09:11:05.027Z,0.90
2017-07-16T09:13:33.378Z,1.10
2017-07-16T09:16:01.695Z,1.10
2017-07-16T09:18:30.013Z,1.10
2017-07-16T09:20:58.355Z,1.50
2017-07-16T09:23:26.675Z,1.30
2017-07-16T09:25:55.018Z,1.03
2017-07-16T09:28:23.337Z,1.27
2017-07-16T09:30:51.676Z,1.00
2017-07-16T09:33:19.991Z,0.97
2017-07-16T09:35:48.332Z,1.07
2017-07-16T09:38:16.650Z,1.00
2017-07-16T09:40:44.988Z,1.00
2017-07-16T09:43:13.301Z,1.10
2017-07-16T09:45:41.659Z,1.20
2017-07-16T09:48:09.974Z,1.10
2017-07-16T09:50:38.304Z,1.00
2017-07-16T09:53:06.639Z,1.00
2017-07-16T09:55:34.965Z,1.23
2017-07-16T09:58:03.300Z,1.00
2017-07-16T10:00:31.615Z,1.13
2017-07-16T10:03:19.103Z,0.97
2017-07-16T10:05:47.422Z,0.90
2017-07-16T10:08:15.766Z,1.00
2017-07-16T10:10:44.076Z,1.00
2017-07-16T10:13:14.367Z,0.90
2017-07-16T10:15:42.688Z,1.10
2017-07-16T10:18:11.029Z,0.90
2017-07-16T10:20:39.379Z,1.00
2017-07-16T10:23:07.690Z,1.03
2017-07-16T10:25:36.026Z,1.30
2017-07-16T10:28:04.347Z,0.80
2017-07-16T10:30:32.733Z,1.10
2017-07-16T10:33:01.054Z,0.80
2017-07-16T10:35:29.419Z,1.00
2017-07-16T10:37:57.730Z,1.03
2017-07-16T10:40:26.064Z,1.00
2017-07-16T10:42:54.394Z,0.80
2017-07-16T10:45:22.737Z,0.80
2017-07-16T10:47:54.223Z,0.90
2017-07-16T10:50:22.576Z,1.03
2017-07-16T10:52:50.899Z,0.90
2017-07-16T10:55:19.221Z,0.80
2017-07-16T10:57:47.561Z,0.90
2017-07-16T11:00:15.871Z,1.00
2017-07-16T11:02:44.215Z,1.17
2017-07-16T11:05:12.532Z,0.77
2017-07-16T11:07:40.870Z,0.80
2017-07-16T11:10:10.028Z,1.00
2017-07-16T11:12:38.359Z,0.90
2017-07-16T11:15:06.680Z,1.00
2017-07-16T11:17:35.040Z,1.10
2017-07-16T11:20:03.368Z,1.13
2017-07-16T11:22:31.688Z,1.10
2017-07-16T11:25:00.024Z,1.10
2017-07-16T11:27:28.340Z,0.90
2017-07-16T11:29:56.673Z,1.00
2017-07-16T11:32:24.985Z,0.90
2017-07-16T11:34:53.331Z,1.00
2017-07-16T11:37:21.642Z,1.00
2017-07-16T11:39:49.973Z,0.80
2017-07-16T11:42:22.166Z,0.90
2017-07-16T11:44:50.542Z,0.97
2017-07-16T11:47:18.961Z,0.97
2017-07-16T11:49:47.307Z,0.83
2017-07-16T11:52:15.618Z,0.80
2017-07-16T11:54:45.673Z,0.80
2017-07-16T11:57:14.025Z,1.00
2017-07-16T11:59:42.337Z,1.00
2017-07-16T12:02:10.679Z,0.90
2017-07-16T12:04:38.997Z,0.83
2017-07-16T12:07:07.340Z,0.80
2017-07-16T12:09:35.657Z,1.00
2017-07-16T12:12:04.025Z,0.80
2017-07-16T12:14:32.356Z,0.77
2017-07-16T12:17:00.679Z,0.80
2017-07-16T12:19:29.013Z,0.70
2017-07-16T12:21:57.324Z,0.80
2017-07-16T12:24:25.669Z,1.00
2017-07-16T12:26:53.982Z,1.00
2017-07-16T12:29:22.319Z,1.10
2017-07-16T12:31:50.638Z,0.90
2017-07-16T12:34:18.975Z,0.80
2017-07-16T12:36:47.288Z,0.97
2017-07-16T12:39:15.641Z,0.97
2017-07-16T12:41:43.959Z,0.90
2017-07-16T12:44:12.275Z,1.03
2017-07-16T12:46:40.616Z,0.90
2017-07-16T12:49:08.938Z,1.10
2017-07-16T12:51:37.301Z,0.80
2017-07-16T12:54:05.623Z,0.80
2017-07-16T12:56:33.969Z,1.00
2017-07-16T12:59:02.279Z,0.80
2017-07-16T13:01:30.616Z,0.80
2017-07-16T13:03:58.932Z,1.03
2017-07-16T13:06:27.273Z,0.80
2017-07-16T13:08:55.591Z,0.90
2017-07-16T13:11:23.942Z,0.80
2017-07-16T13:13:52.260Z,1.00
2017-07-16T13:16:20.577Z,1.03
2017-07-16T13:18:48.911Z,0.80
2017-07-16T13:21:17.225Z,0.80
2017-07-16T13:23:45.567Z,0.90
2017-07-16T13:26:26.979Z,0.80
2017-07-16T13:28:55.324Z,1.37
2017-07-16T13:31:23.649Z,1.00
2017-07-16T13:33:51.991Z,0.80
2017-07-16T13:36:20.466Z,1.10
2017-07-16T13:38:49.733Z,0.90
2017-07-16T13:41:18.039Z,0.90
2017-07-16T13:43:46.370Z,1.50
2017-07-16T13:46:14.714Z,1.00
2017-07-16T13:48:43.040Z,1.23
2017-07-16T13:51:11.603Z,0.80
2017-07-16T13:53:39.936Z,0.90
2017-07-16T13:56:08.274Z,1.00
2017-07-16T13:58:36.592Z,0.70
2017-07-16T14:01:04.937Z,1.00
2017-07-16T14:03:33.247Z,0.90
2017-07-16T14:06:01.592Z,1.67
2017-07-16T14:08:29.919Z,1.00
2017-07-16T14:10:58.275Z,0.90
2017-07-16T14:13:26.592Z,1.00
2017-07-16T14:15:54.912Z,0.90
2017-07-16T14:18:23.258Z,1.20
2017-07-16T14:20:51.596Z,0.80
2017-07-16T14:23:19.935Z,1.27
2017-07-16T14:25:48.266Z,0.83
2017-07-16T14:28:16.613Z,0.97
2017-07-16T14:30:44.936Z,1.20
2017-07-16T14:33:13.276Z,1.10
2017-07-16T14:35:41.593Z,0.90
2017-07-16T14:38:09.934Z,1.10
2017-07-16T14:40:38.256Z,0.90
2017-07-16T14:43:06.570Z,1.13
2017-07-16T14:45:34.921Z,1.10
2017-07-16T14:48:03.242Z,0.97
2017-07-16T14:50:31.575Z,1.00
2017-07-16T14:52:59.893Z,1.10
2017-07-16T14:55:28.234Z,1.17
2017-07-16T14:58:10.779Z,1.00
2017-07-16T15:00:39.121Z,1.10
2017-07-16T15:03:07.437Z,1.43
2017-07-16T15:05:35.753Z,1.00
2017-07-16T15:08:04.086Z,1.10
2017-07-16T15:10:32.416Z,1.10
2017-07-16T15:13:00.753Z,1.00
2017-07-16T15:15:29.988Z,1.00
2017-07-16T15:17:58.340Z,1.33
2017-07-16T15:20:26.660Z,1.30
2017-07-16T15:22:55.006Z,1.23
2017-07-16T15:25:23.316Z,1.17
2017-07-16T15:27:51.637Z,1.30
2017-07-16T15:30:19.977Z,1.20
2017-07-16T15:32:48.447Z,1.07
2017-07-16T15:35:16.791Z,1.30
2017-07-16T15:37:45.109Z,1.10
2017-07-16T15:40:13.452Z,1.17
2017-07-16T15:42:41.768Z,1.20
2017-07-16T15:45:10.109Z,1.20
2017-07-16T15:47:38.540Z,1.10
2017-07-16T15:50:06.899Z,1.10
2017-07-16T15:52:35.224Z,1.23
2017-07-16T15:55:03.537Z,1.30
2017-07-16T15:57:31.875Z,1.00
2017-07-16T16:00:00.206Z,1.30
2017-07-16T16:02:28.587Z,1.33
2017-07-16T16:04:56.899Z,1.00
2017-07-16T16:07:26.143Z,1.10
2017-07-16T16:09:54.467Z,1.60
2017-07-16T16:12:22.811Z,1.97
2017-07-16T16:14:51.158Z,1.30
2017-07-16T16:17:19.743Z,1.10
2017-07-16T16:19:48.213Z,1.10
2017-07-16T16:22:16.544Z,1.10
2017-07-16T16:24:44.888Z,1.30
2017-07-16T16:27:13.206Z,0.80
2017-07-16T16:29:41.548Z,1.10
2017-07-16T16:32:09.939Z,1.00
2017-07-16T16:34:38.313Z,0.90
2017-07-16T16:37:06.630Z,1.07
2017-07-16T16:39:34.967Z,1.20
2017-07-16T16:42:03.296Z,1.20
2017-07-16T16:44:31.631Z,1.30
2017-07-16T16:46:59.977Z,1.00
2017-07-16T16:49:28.324Z,1.20
2017-07-16T16:51:56.655Z,0.97
2017-07-16T16:54:24.978Z,1.00
2017-07-16T16:56:53.314Z,1.00
2017-07-16T16:59:21.640Z,1.20
2017-07-16T17:01:50.084Z,1.20
2017-07-16T17:04:18.408Z,1.40
2017-07-16T17:06:46.754Z,1.20
2017-07-16T17:09:15.075Z,1.60
2017-07-16T17:11:43.421Z,1.30
2017-07-16T17:14:11.749Z,1.17
2017-07-16T17:16:40.111Z,1.00
2017-07-16T17:19:08.425Z,1.10
2017-07-16T17:21:36.786Z,1.50
2017-07-16T17:24:05.120Z,1.27
2017-07-16T17:26:33.475Z,1.10
2017-07-16T17:29:01.786Z,1.13
2017-07-16T17:31:30.115Z,1.13
2017-07-16T17:33:58.471Z,1.07
2017-07-16T17:36:26.788Z,1.50
2017-07-16T17:38:55.191Z,1.20
2017-07-16T17:41:23.509Z,1.33
2017-07-16T17:43:51.853Z,1.10
2017-07-16T17:46:20.180Z,1.00
2017-07-16T17:48:48.521Z,1.47
2017-07-16T17:51:16.849Z,1.13
2017-07-16T17:53:45.269Z,1.87
2017-07-16T17:56:13.593Z,1.30
2017-07-16T17:58:41.913Z,1.30
2017-07-16T18:01:10.266Z,1.10
2017-07-16T18:03:38.633Z,1.33
2017-07-16T18:09:07.204Z,1.67
2017-07-16T18:14:29.165Z,1.77
2017-07-16T18:16:57.537Z,1.60
2017-07-16T18:19:25.869Z,1.20
2017-07-16T18:21:54.206Z,1.40
2017-07-16T18:24:22.523Z,1.60
2017-07-16T18:26:50.859Z,1.50
2017-07-16T18:29:19.352Z,1.40
2017-07-16T18:31:47.736Z,1.43
2017-07-16T18:34:16.070Z,1.30
2017-07-16T18:36:44.416Z,1.37
2017-07-16T18:39:12.754Z,1.40
2017-07-16T18:41:41.119Z,1.40
2017-07-16T18:44:09.435Z,1.60
2017-07-16T18:46:37.774Z,1.60
2017-07-16T18:49:06.123Z,1.97
2017-07-16T18:51:34.442Z,1.67
2017-07-16T18:54:02.781Z,1.53
2017-07-16T18:56:31.105Z,1.53
2017-07-16T18:58:59.465Z,1.50
2017-07-16T19:01:27.810Z,1.50
2017-07-16T19:03:56.153Z,1.63
2017-07-16T19:06:24.474Z,1.53
2017-07-16T19:08:52.819Z,1.87
2017-07-16T19:11:21.145Z,2.23
2017-07-16T19:13:49.454Z,1.73
2017-07-16T19:16:17.819Z,1.80
2017-07-16T19:18:46.145Z,1.60
2017-07-16T19:21:14.496Z,1.73
2017-07-16T19:23:42.806Z,1.50
2017-07-16T19:26:11.170Z,1.90
2017-07-16T19:28:39.566Z,1.80
2017-07-16T19:31:08.005Z,1.80
2017-07-16T19:33:36.328Z,1.40
2017-07-16T19:36:04.681Z,2.00
2017-07-16T19:38:33.016Z,2.10
2017-07-16T19:41:01.336Z,1.87
2017-07-16T19:43:29.671Z,1.70
2017-07-16T19:45:58.126Z,2.00
2017-07-16T19:48:26.474Z,1.93
2017-07-16T19:50:54.794Z,1.67
2017-07-16T19:53:30.243Z,1.87
2017-07-16T19:55:58.571Z,1.83
2017-07-16T19:58:26.930Z,2.33
2017-07-16T20:00:55.257Z,1.70
2017-07-16T20:03:23.598Z,2.30
2017-07-16T20:05:51.916Z,2.87
2017-07-16T20:08:20.270Z,1.97
2017-07-16T20:10:48.596Z,2.03
2017-07-16T20:13:16.914Z,2.20
2017-07-16T20:15:45.256Z,2.47
2017-07-16T20:18:13.590Z,2.60
2017-07-16T20:20:41.928Z,2.87
2017-07-16T20:23:10.256Z,2.97
2017-07-16T20:25:38.608Z,3.17
2017-07-16T20:28:06.935Z,2.53
2017-07-16T20:30:35.289Z,3.70
2017-07-16T20:33:03.619Z,3.10
2017-07-16T20:35:31.964Z,3.93
2017-07-16T20:38:00.292Z,3.40
2017-07-16T20:40:28.666Z,2.80
2017-07-16T20:42:56.985Z,3.07
2017-07-16T20:45:25.315Z,3.50
2017-07-16T20:47:53.663Z,2.73
2017-07-16T20:50:21.999Z,3.33
2017-07-16T20:52:50.350Z,2.97
2017-07-16T20:55:18.710Z,3.60
2017-07-16T20:57:47.068Z,3.10
2017-07-16T21:00:15.388Z,3.00
2017-07-16T21:02:43.764Z,2.90
2017-07-16T21:05:12.088Z,3.00
2017-07-16T21:07:40.415Z,3.40
2017-07-16T21:10:08.780Z,3.13
2017-07-16T21:12:37.114Z,2.67
2017-07-16T21:15:05.461Z,3.20
2017-07-16T21:17:33.787Z,3.17
2017-07-16T21:20:02.143Z,3.30
2017-07-16T21:22:30.470Z,2.60
2017-07-16T21:24:58.822Z,3.33
2017-07-16T21:27:27.179Z,2.63
2017-07-16T21:29:55.538Z,3.07
2017-07-16T21:32:23.866Z,2.53
2017-07-16T21:34:52.260Z,2.83
2017-07-16T21:37:20.596Z,2.50
2017-07-16T21:39:48.963Z,2.87
2017-07-16T21:42:17.308Z,3.07
2017-07-16T21:44:45.632Z,3.07
2017-07-16T21:47:13.979Z,2.73
2017-07-16T21:49:42.311Z,2.40
2017-07-16T21:52:10.651Z,2.50
2017-07-16T21:54:38.982Z,2.20
2017-07-16T21:57:07.319Z,2.97
2017-07-16T21:59:35.647Z,2.70
2017-07-16T22:02:03.991Z,3.17
2017-07-16T22:04:32.316Z,2.73
2017-07-16T22:07:00.655Z,2.80
2017-07-16T22:09:28.976Z,3.50
2017-07-16T22:11:57.319Z,3.80
2017-07-16T22:14:25.664Z,3.00
2017-07-16T22:16:54.022Z,3.90
2017-07-16T22:19:22.353Z,3.30
2017-07-16T22:21:50.706Z,3.20
2017-07-16T22:24:19.032Z,2.90
2017-07-16T22:26:47.355Z,2.70
2017-07-16T22:29:15.713Z,3.07
2017-07-16T22:31:44.040Z,3.37
2017-07-16T22:34:12.383Z,2.70
2017-07-16T22:36:40.711Z,3.20
2017-07-16T22:39:09.113Z,3.20
2017-07-16T22:41:37.433Z,3.80
2017-07-16T22:44:05.772Z,2.90
2017-07-16T22:46:34.098Z,3.67
2017-07-16T22:49:02.456Z,3.20
2017-07-16T22:51:30.778Z,3.60
2017-07-16T22:53:59.105Z,2.80
2017-07-16T22:56:27.446Z,3.13
2017-07-16T22:58:55.765Z,3.30
2017-07-16T23:01:24.113Z,3.10
2017-07-16T23:03:52.432Z,3.30
2017-07-16T23:06:20.769Z,3.00
2017-07-16T23:08:49.083Z,3.50
2017-07-16T23:11:17.424Z,3.03
2017-07-16T23:13:45.750Z,3.07
2017-07-16T23:16:14.130Z,2.93
2017-07-16T23:18:42.443Z,3.30
2017-07-16T23:21:10.772Z,3.60
2017-07-16T23:23:39.111Z,3.30
2017-07-16T23:26:07.425Z,3.20
2017-07-16T23:28:35.800Z,3.13
2017-07-16T23:31:04.116Z,2.80
2017-07-16T23:33:32.461Z,3.60
2017-07-16T23:36:00.783Z,3.83
2017-07-16T23:38:29.128Z,3.60
2017-07-16T23:40:57.447Z,3.03
2017-07-16T23:43:25.789Z,3.10
2017-07-16T23:45:54.108Z,3.43
2017-07-16T23:48:22.434Z,3.47
2017-07-16T23:50:50.792Z,3.23
2017-07-16T23:53:19.120Z,3.60
2017-07-16T23:55:47.457Z,3.77
2017-07-16T23:58:15.781Z,4.10
